Time;durP1;ratioP1;P1;durP2;ratioP2;P2;SDS_P1;SDS_P2;PMS_P1;PMS_P2;Temp;Humidity;BMP_temperature;BMP_pressure;BME280_temperature;BME280_humidity;BME280_pressure;Samples;Min_cycle;Max_cycle;Signal;HPM_P1;HPM_P2
2023/10/13 00:00:25;;;;;;;28.40;13.13;;;;;;;;;;4990044;28;98630;-63
2023/10/13 00:02:52;;;;;;;20.08;12.48;;;;;;;;;;4987830;28;99096;-63
2023/10/13 00:05:19;;;;;;;27.00;13.02;;;;;;;;;;4992504;28;99623;-63
2023/10/13 00:07:45;;;;;;;24.80;13.25;;;;;;;;;;4990839;28;99395;-63
2023/10/13 00:10:12;;;;;;;22.67;12.95;;;;;;;;;;4990686;28;98667;-62
2023/10/13 00:12:38;;;;;;;27.30;12.98;;;;;;;;;;4989842;28;98620;-63
2023/10/13 00:15:07;;;;;;;26.13;12.93;;;;;;;;;;4988330;28;98731;-62
2023/10/13 00:17:33;;;;;;;24.60;11.55;;;;;;;;;;4990136;28;100193;-62
2023/10/13 00:20:00;;;;;;;19.42;13.07;;;;;;;;;;4990233;28;98602;-63
2023/10/13 00:22:27;;;;;;;21.13;11.50;;;;;;;;;;4990014;28;99005;-63
2023/10/13 00:24:58;;;;;;;18.35;11.65;;;;;;;;;;4989380;28;99464;-63
2023/10/13 00:27:33;;;;;;;19.10;11.07;;;;;;;;;;4992921;28;98663;-63
2023/10/13 00:32:54;;;;;;;28.25;11.95;;;;;;;;;;4986746;28;98488;-63
2023/10/13 00:35:25;;;;;;;20.48;10.88;;;;;;;;;;4990384;28;99250;-62
2023/10/13 00:37:55;;;;;;;23.58;11.98;;;;;;;;;;4988823;28;100699;-63
2023/10/13 00:40:42;;;;;;;22.23;11.25;;;;;;;;;;4989992;28;98617;-63
2023/10/13 00:46:06;;;;;;;26.38;11.70;;;;;;;;;;4985930;28;100524;-62
2023/10/13 00:48:34;;;;;;;22.60;11.57;;;;;;;;;;4988415;28;98446;-63
2023/10/13 00:51:02;;;;;;;23.63;11.98;;;;;;;;;;4991942;28;99200;-62
2023/10/13 00:53:39;;;;;;;21.58;12.18;;;;;;;;;;4989089;28;98925;-63
2023/10/13 00:56:07;;;;;;;24.65;12.30;;;;;;;;;;4989392;28;100346;-62
2023/10/13 00:58:34;;;;;;;17.70;11.93;;;;;;;;;;4988892;28;99525;-62
2023/10/13 01:01:17;;;;;;;24.85;13.73;;;;;;;;;;4989652;28;97759;-63
2023/10/13 01:03:45;;;;;;;19.92;12.98;;;;;;;;;;4985930;28;98805;-63
2023/10/13 01:06:12;;;;;;;29.77;13.15;;;;;;;;;;4988710;28;99501;-62
2023/10/13 01:08:38;;;;;;;28.75;13.57;;;;;;;;;;4989669;28;99354;-62
2023/10/13 01:11:07;;;;;;;22.77;12.82;;;;;;;;;;4990266;28;100011;-62
2023/10/13 01:13:37;;;;;;;26.17;14.60;;;;;;;;;;4988527;28;98558;-63
2023/10/13 01:16:04;;;;;;;26.87;14.67;;;;;;;;;;4989682;28;100278;-63
2023/10/13 01:18:31;;;;;;;23.17;13.73;;;;;;;;;;4988487;28;99497;-63
2023/10/13 01:20:59;;;;;;;28.13;15.23;;;;;;;;;;4989603;28;98546;-63
2023/10/13 01:23:28;;;;;;;25.65;14.52;;;;;;;;;;4988646;28;99087;-63
2023/10/13 01:25:56;;;;;;;25.83;14.90;;;;;;;;;;4989401;28;99041;-63
2023/10/13 01:28:23;;;;;;;24.67;13.60;;;;;;;;;;4988741;28;98608;-63
2023/10/13 01:30:50;;;;;;;24.88;13.90;;;;;;;;;;4989051;28;99253;-63
2023/10/13 01:33:17;;;;;;;22.95;14.25;;;;;;;;;;4991538;28;100400;-62
2023/10/13 01:35:47;;;;;;;26.63;13.75;;;;;;;;;;4989102;28;100389;-63
2023/10/13 01:38:14;;;;;;;24.47;13.53;;;;;;;;;;4989487;28;101230;-63
2023/10/13 01:40:42;;;;;;;23.05;12.48;;;;;;;;;;4988556;28;98640;-63
2023/10/13 01:43:10;;;;;;;19.60;12.02;;;;;;;;;;4971043;28;99065;-63
2023/10/13 01:45:49;;;;;;;19.67;11.85;;;;;;;;;;4988267;28;99413;-63
2023/10/13 01:48:18;;;;;;;22.30;12.68;;;;;;;;;;4988508;28;98571;-65
2023/10/13 01:50:54;;;;;;;20.67;11.93;;;;;;;;;;4989510;28;99294;-65
2023/10/13 01:53:22;;;;;;;23.17;11.93;;;;;;;;;;4985178;28;99488;-65
2023/10/13 01:55:50;;;;;;;20.70;12.20;;;;;;;;;;4992589;28;98633;-65
2023/10/13 01:58:16;;;;;;;19.10;11.60;;;;;;;;;;4988808;28;100574;-64
2023/10/13 02:00:45;;;;;;;23.83;11.50;;;;;;;;;;4988412;28;98676;-65
2023/10/13 02:03:18;;;;;;;23.33;11.88;;;;;;;;;;4988483;28;99380;-64
2023/10/13 02:05:49;;;;;;;21.73;10.68;;;;;;;;;;4984460;28;99837;-65
2023/10/13 02:08:24;;;;;;;23.35;10.20;;;;;;;;;;4989141;28;98529;-65
2023/10/13 02:10:51;;;;;;;17.73;10.80;;;;;;;;;;4984969;28;99341;-65
2023/10/13 02:13:19;;;;;;;24.40;10.95;;;;;;;;;;4988069;28;99523;-65
2023/10/13 02:15:46;;;;;;;24.25;10.90;;;;;;;;;;4985079;28;97743;-65
2023/10/13 02:18:13;;;;;;;22.05;10.93;;;;;;;;;;4991877;28;98482;-65
2023/10/13 02:20:44;;;;;;;21.45;9.15;;;;;;;;;;4987685;28;98663;-64
2023/10/13 02:23:10;;;;;;;16.83;9.93;;;;;;;;;;4988774;28;100210;-65
2023/10/13 02:25:42;;;;;;;18.15;9.35;;;;;;;;;;4988796;28;99467;-65
2023/10/13 02:28:13;;;;;;;17.88;9.68;;;;;;;;;;4988212;28;98772;-65
2023/10/13 02:30:48;;;;;;;22.52;9.32;;;;;;;;;;4988072;28;99230;-64
2023/10/13 02:33:20;;;;;;;16.10;9.75;;;;;;;;;;4987867;28;99502;-64
2023/10/13 02:35:53;;;;;;;16.52;9.00;;;;;;;;;;4985217;28;98547;-64
2023/10/13 02:41:08;;;;;;;26.33;9.65;;;;;;;;;;4990528;28;98884;-64
2023/10/13 02:43:35;;;;;;;18.40;8.57;;;;;;;;;;4988357;28;99426;-64
2023/10/13 02:46:03;;;;;;;24.13;9.07;;;;;;;;;;4988689;28;99033;-65
2023/10/13 02:48:45;;;;;;;18.45;9.20;;;;;;;;;;4987948;28;99759;-65
2023/10/13 02:51:18;;;;;;;14.95;9.07;;;;;;;;;;4989220;28;99934;-64
2023/10/13 02:53:52;;;;;;;14.27;8.77;;;;;;;;;;4987877;28;99560;-65
2023/10/13 02:56:22;;;;;;;19.40;8.88;;;;;;;;;;4985073;28;98786;-65
2023/10/13 02:58:53;;;;;;;;;;;;;;;;;;4985485;28;99376;-63
2023/10/13 03:01:20;;;;;;;17.80;8.57;;;;;;;;;;4985509;28;130074;-63
2023/10/13 03:03:53;;;;;;;18.75;8.70;;;;;;;;;;4991412;28;98748;-63
2023/10/13 03:06:21;;;;;;;17.60;9.00;;;;;;;;;;4988757;28;98739;-63
2023/10/13 03:08:48;;;;;;;19.33;9.10;;;;;;;;;;4984995;28;98704;-62
2023/10/13 03:11:14;;;;;;;23.10;9.07;;;;;;;;;;4988150;28;99091;-63
2023/10/13 03:13:45;;;;;;;20.20;8.93;;;;;;;;;;4987094;28;100197;-63
2023/10/13 03:16:19;;;;;;;19.52;8.55;;;;;;;;;;4988039;28;99287;-63
2023/10/13 03:18:55;;;;;;;20.67;8.77;;;;;;;;;;4988417;28;99308;-62
2023/10/13 03:21:29;;;;;;;21.52;9.02;;;;;;;;;;4984183;28;100528;-63
2023/10/13 03:23:56;;;;;;;17.58;8.70;;;;;;;;;;4988657;28;99407;-63
2023/10/13 03:26:22;;;;;;;22.70;8.30;;;;;;;;;;4986920;28;99567;-63
2023/10/13 03:28:51;;;;;;;16.13;8.05;;;;;;;;;;4985295;28;98485;-62
2023/10/13 03:31:19;;;;;;;21.52;7.90;;;;;;;;;;4988160;28;100189;-63
2023/10/13 03:33:46;;;;;;;13.35;7.45;;;;;;;;;;4988736;28;99418;-63
2023/10/13 03:36:35;;;;;;;14.90;7.78;;;;;;;;;;4991511;28;98775;-63
2023/10/13 03:38:59;;;;;;;19.02;7.43;;;;;;;;;;4989279;28;99286;-62
2023/10/13 03:41:30;;;;;;;15.55;7.70;;;;;;;;;;4990710;28;99867;-62
2023/10/13 03:44:09;;;;;;;;;;;;;;;;;;4991561;28;98506;-63
2023/10/13 03:46:36;;;;;;;15.82;7.13;;;;;;;;;;4995451;28;129457;-63
2023/10/13 03:49:06;;;;;;;13.20;6.38;;;;;;;;;;4991142;28;98668;-62
2023/10/13 03:51:33;;;;;;;18.88;7.10;;;;;;;;;;4991136;28;99136;-63
2023/10/13 03:54:07;;;;;;;13.63;7.05;;;;;;;;;;4991490;28;99716;-62
2023/10/13 03:56:39;;;;;;;16.52;7.35;;;;;;;;;;4991106;28;98290;-62
2023/10/13 03:59:09;;;;;;;16.77;7.55;;;;;;;;;;4990981;28;98925;-62
2023/10/13 04:01:46;;;;;;;12.85;6.68;;;;;;;;;;4990992;28;100553;-62
2023/10/13 04:04:15;;;;;;;22.80;8.30;;;;;;;;;;4990717;28;99194;-62
2023/10/13 04:17:14;;;;;;;13.40;7.13;;;;;;;;;;4990964;28;98568;-62
2023/10/13 04:23:17;;;;;;;16.30;7.40;;;;;;;;;;4988108;28;98718;-63
2023/10/13 04:25:38;;;;;;;13.80;6.68;;;;;;;;;;4991060;28;98628;-62
2023/10/13 04:36:00;;;;;;;16.95;6.47;;;;;;;;;;4987742;28;100450;-63
2023/10/13 04:38:34;;;;;;;18.55;6.85;;;;;;;;;;4991210;28;98606;-63
2023/10/13 04:41:02;;;;;;;13.38;6.78;;;;;;;;;;4990041;28;99167;-62
2023/10/13 04:43:55;;;;;;;12.20;6.63;;;;;;;;;;4989545;28;98703;-62
2023/10/13 04:46:39;;;;;;;15.20;6.68;;;;;;;;;;4990687;28;98608;-62
2023/10/13 04:49:28;;;;;;;13.63;7.15;;;;;;;;;;4990691;28;99365;-62
2023/10/13 06:29:38;;;;;;;11.88;5.53;;;;;;;;;;4986958;28;98620;-64
2023/10/13 06:32:10;;;;;;;17.85;6.47;;;;;;;;;;4991850;28;100235;-64
2023/10/13 06:34:47;;;;;;;18.58;5.93;;;;;;;;;;4988426;28;98612;-65
2023/10/13 06:37:33;;;;;;;14.85;6.15;;;;;;;;;;4988791;28;98823;-65
2023/10/13 06:40:07;;;;;;;20.85;7.05;;;;;;;;;;4984446;28;99532;-65
2023/10/13 06:42:42;;;;;;;15.85;7.00;;;;;;;;;;4984950;28;98664;-64
2023/10/13 06:45:09;;;;;;;13.73;7.28;;;;;;;;;;4988308;28;100474;-64
2023/10/13 06:47:55;;;;;;;15.90;7.75;;;;;;;;;;4987849;28;99417;-64
2023/10/13 06:50:24;;;;;;;21.17;8.32;;;;;;;;;;4989009;28;99081;-64
2023/10/13 06:52:54;;;;;;;19.30;7.45;;;;;;;;;;4988418;28;100195;-64
2023/10/13 06:55:28;;;;;;;20.92;7.75;;;;;;;;;;4991158;28;100519;-64
2023/10/13 06:57:59;;;;;;;17.88;8.30;;;;;;;;;;4988579;28;99391;-64
2023/10/13 07:00:38;;;;;;;13.85;8.27;;;;;;;;;;4988127;28;99461;-64
2023/10/13 07:03:17;;;;;;;15.82;7.65;;;;;;;;;;4985950;28;97801;-65
2023/10/13 07:05:47;;;;;;;12.82;8.50;;;;;;;;;;4988622;28;98613;-65
2023/10/13 07:08:14;;;;;;;10.65;7.57;;;;;;;;;;4988261;28;99804;-64
2023/10/13 07:11:32;;;;;;;17.02;8.38;;;;;;;;;;4991346;28;99362;-64
2023/10/13 07:13:47;;;;;;;10.63;7.72;;;;;;;;;;4988590;28;100174;-64
2023/10/13 07:16:13;;;;;;;20.45;8.15;;;;;;;;;;4991850;28;99555;-64
2023/10/13 07:18:55;;;;;;;15.63;7.55;;;;;;;;;;4995187;28;98553;-65
2023/10/13 07:21:30;;;;;;;13.77;7.40;;;;;;;;;;4991102;28;99479;-65
2023/10/13 07:24:07;;;;;;;18.83;8.05;;;;;;;;;;4988451;28;98671;-64
2023/10/13 07:26:45;;;;;;;14.50;7.70;;;;;;;;;;4992070;28;100212;-64
2023/10/13 07:29:12;;;;;;;22.83;6.97;;;;;;;;;;4991405;28;98678;-64
2023/10/13 07:31:41;;;;;;;14.93;6.78;;;;;;;;;;4992238;28;98650;-64
2023/10/13 07:34:26;;;;;;;18.33;6.45;;;;;;;;;;4990739;28;99401;-65
2023/10/13 07:36:53;;;;;;;13.27;5.60;;;;;;;;;;4990279;28;100430;-64
2023/10/13 07:39:24;;;;;;;10.63;5.63;;;;;;;;;;4992047;28;98609;-65
2023/10/13 07:41:54;;;;;;;12.90;6.00;;;;;;;;;;4994525;28;98915;-62
2023/10/13 07:44:31;;;;;;;16.58;6.38;;;;;;;;;;4991960;28;98485;-62
2023/10/13 07:46:58;;;;;;;14.45;5.85;;;;;;;;;;4990929;28;99297;-62
2023/10/13 07:49:30;;;;;;;22.98;6.43;;;;;;;;;;4991068;28;99467;-62
2023/10/13 07:52:23;;;;;;;14.52;5.80;;;;;;;;;;4991372;28;98695;-63
2023/10/13 07:55:11;;;;;;;14.95;5.85;;;;;;;;;;4992085;28;99150;-63
2023/10/13 07:57:53;;;;;;;18.02;5.97;;;;;;;;;;4990368;28;99525;-62
2023/10/13 08:00:29;;;;;;;19.25;5.53;;;;;;;;;;4991730;28;98963;-63
2023/10/13 08:03:07;;;;;;;17.38;6.20;;;;;;;;;;4994111;28;100240;-62
2023/10/13 08:05:55;;;;;;;19.20;5.60;;;;;;;;;;4987434;28;98545;-63
2023/10/13 08:08:25;;;;;;;20.02;5.97;;;;;;;;;;4990077;28;100259;-63
2023/10/13 08:11:00;;;;;;;25.57;7.10;;;;;;;;;;4990988;28;99408;-62
2023/10/13 08:13:27;;;;;;;17.98;6.45;;;;;;;;;;4990720;28;98609;-63
2023/10/13 08:15:53;;;;;;;16.88;5.60;;;;;;;;;;4990291;28;99102;-62
2023/10/13 08:18:30;;;;;;;27.90;5.93;;;;;;;;;;4990997;28;99458;-62
2023/10/13 08:21:03;;;;;;;19.60;5.82;;;;;;;;;;4990970;28;98041;-63
2023/10/13 08:26:30;;;;;;;22.27;5.97;;;;;;;;;;4996376;28;99359;-63
2023/10/13 08:29:05;;;;;;;21.65;4.78;;;;;;;;;;4990866;28;99246;-63
2023/10/13 08:31:32;;;;;;;15.43;5.22;;;;;;;;;;4986781;28;99647;-63
2023/10/13 08:34:06;;;;;;;15.20;4.50;;;;;;;;;;4990882;28;98657;-63
2023/10/13 08:36:37;;;;;;;20.60;4.65;;;;;;;;;;4987549;28;99229;-63
2023/10/13 08:39:39;;;;;;;22.45;5.22;;;;;;;;;;4986329;28;99522;-63
2023/10/13 08:42:09;;;;;;;22.55;5.28;;;;;;;;;;4988606;28;98441;-63
2023/10/13 08:44:38;;;;;;;16.85;4.40;;;;;;;;;;4987487;28;99171;-63
2023/10/13 08:47:18;;;;;;;18.70;5.45;;;;;;;;;;4991330;28;100065;-63
2023/10/13 08:49:51;;;;;;;26.73;6.15;;;;;;;;;;4992994;28;98600;-63
2023/10/13 08:58:12;;;;;;;16.20;4.50;;;;;;;;;;4990341;28;100508;-65
2023/10/13 09:01:11;;;;;;;15.02;5.20;;;;;;;;;;4989441;28;99531;-65
2023/10/13 09:03:40;;;;;;;19.05;5.07;;;;;;;;;;4987177;28;98524;-65
2023/10/13 09:06:14;;;;;;;19.00;5.88;;;;;;;;;;4990027;28;99227;-65
2023/10/13 09:09:03;;;;;;;12.57;3.95;;;;;;;;;;4989327;28;100441;-65
2023/10/13 09:11:48;;;;;;;21.92;5.00;;;;;;;;;;4990099;28;98593;-64
2023/10/13 09:14:35;;;;;;;16.65;4.63;;;;;;;;;;4990451;28;99381;-65
2023/10/13 09:19:48;;;;;;;19.13;4.80;;;;;;;;;;4988387;28;99224;-65
2023/10/13 09:22:26;;;;;;;21.40;4.68;;;;;;;;;;4988744;28;100208;-65
2023/10/13 09:24:58;;;;;;;19.25;6.28;;;;;;;;;;4990520;28;98534;-65
2023/10/13 09:27:26;;;;;;;27.58;5.60;;;;;;;;;;4989701;28;99169;-65
2023/10/13 09:33:01;;;;;;;17.90;4.22;;;;;;;;;;4982974;28;98994;-65
2023/10/13 09:35:31;;;;;;;27.95;5.35;;;;;;;;;;4989940;28;99058;-65
2023/10/13 09:38:02;;;;;;;11.48;4.40;;;;;;;;;;4993113;28;100446;-65
2023/10/13 09:40:37;;;;;;;23.42;4.95;;;;;;;;;;4990749;28;100322;-65
2023/10/13 09:43:08;;;;;;;24.67;5.43;;;;;;;;;;4985117;28;99661;-65
2023/10/13 09:46:01;;;;;;;30.77;4.75;;;;;;;;;;4986110;28;98465;-65
2023/10/13 09:48:32;;;;;;;25.70;5.05;;;;;;;;;;4989153;28;100797;-65
2023/10/13 09:51:01;;;;;;;15.30;4.55;;;;;;;;;;4989315;28;99318;-65
2023/10/13 09:53:29;;;;;;;14.25;4.90;;;;;;;;;;4988805;28;98691;-65
2023/10/13 09:56:26;;;;;;;24.77;4.75;;;;;;;;;;4989450;28;100269;-65
2023/10/13 09:59:10;;;;;;;20.20;4.22;;;;;;;;;;4986874;28;99580;-65
2023/10/13 10:01:38;;;;;;;16.58;5.07;;;;;;;;;;4989123;28;98779;-63
2023/10/13 10:04:11;;;;;;;21.00;5.07;;;;;;;;;;4985568;28;100440;-63
2023/10/13 10:06:49;;;;;;;15.15;4.53;;;;;;;;;;4986381;28;97943;-63
2023/10/13 10:09:21;;;;;;;22.42;4.78;;;;;;;;;;4990013;28;99502;-63
2023/10/13 10:12:05;;;;;;;20.85;6.15;;;;;;;;;;4988014;28;99491;-63
2023/10/13 10:14:51;;;;;;;27.70;5.93;;;;;;;;;;4988749;28;99344;-63
2023/10/13 10:17:18;;;;;;;31.25;5.32;;;;;;;;;;4986704;28;100943;-63
2023/10/13 10:19:48;;;;;;;16.92;5.28;;;;;;;;;;4988152;28;99470;-63
2023/10/13 10:22:17;;;;;;;;;;;;;;;;;;4993128;28;98937;-63
2023/10/13 10:24:44;;;;;;;22.63;5.50;;;;;;;;;;4989102;28;130434;-63
2023/10/13 10:27:14;;;;;;;20.65;5.05;;;;;;;;;;4989562;28;98561;-63
2023/10/13 10:29:53;;;;;;;25.40;5.57;;;;;;;;;;4991100;28;99891;-63
2023/10/13 10:32:19;;;;;;;18.02;5.35;;;;;;;;;;4988856;28;99664;-63
2023/10/13 10:34:46;;;;;;;20.95;6.35;;;;;;;;;;4989307;28;98612;-63
2023/10/13 10:37:13;;;;;;;17.15;5.40;;;;;;;;;;4988720;28;99242;-63
2023/10/13 10:39:45;;;;;;;26.02;5.75;;;;;;;;;;4987808;28;100413;-63
2023/10/13 10:42:15;;;;;;;16.85;5.72;;;;;;;;;;4985250;28;98612;-63
2023/10/13 10:44:45;;;;;;;27.40;5.40;;;;;;;;;;4991685;28;99351;-63
2023/10/13 10:47:19;;;;;;;;;;;;;;;;;;4989159;28;98520;-64
2023/10/13 10:49:47;;;;;;;19.98;5.13;;;;;;;;;;4990021;28;129651;-63
2023/10/13 10:52:18;;;;;;;31.33;7.22;;;;;;;;;;4987655;28;99540;-63
2023/10/13 10:54:51;;;;;;;11.18;4.30;;;;;;;;;;4988721;28;98929;-63
2023/10/13 10:57:17;;;;;;;26.15;5.13;;;;;;;;;;4989232;28;99877;-63
2023/10/13 10:59:45;;;;;;;23.15;6.05;;;;;;;;;;4987656;28;99476;-63
2023/10/13 11:02:18;;;;;;;17.05;5.05;;;;;;;;;;4988589;28;98561;-63
2023/10/13 11:04:53;;;;;;;19.70;4.97;;;;;;;;;;4988011;28;100516;-63
2023/10/13 11:07:21;;;;;;;18.63;5.47;;;;;;;;;;4991381;28;99454;-63
2023/10/13 11:09:47;;;;;;;21.33;5.57;;;;;;;;;;4989135;28;99185;-63
2023/10/13 11:12:14;;;;;;;29.83;5.90;;;;;;;;;;4987953;28;99444;-63
2023/10/13 11:14:47;;;;;;;18.17;5.32;;;;;;;;;;4988169;28;98524;-63
2023/10/13 11:17:24;;;;;;;18.80;5.22;;;;;;;;;;4988605;28;100236;-63
2023/10/13 11:19:51;;;;;;;20.40;5.47;;;;;;;;;;4987589;28;99716;-63
2023/10/13 11:22:41;;;;;;;25.52;5.82;;;;;;;;;;4988786;28;97871;-63
2023/10/13 11:25:11;;;;;;;26.52;6.13;;;;;;;;;;4985044;28;98694;-63
2023/10/13 11:27:44;;;;;;;23.90;4.90;;;;;;;;;;4988314;28;99504;-63
2023/10/13 11:30:15;;;;;;;36.15;6.53;;;;;;;;;;4987850;28;99250;-63
2023/10/13 11:32:42;;;;;;;15.35;5.47;;;;;;;;;;4984172;28;99527;-62
2023/10/13 11:35:20;;;;;;;32.85;5.15;;;;;;;;;;4984466;28;98579;-63
2023/10/13 11:37:56;;;;;;;16.48;5.22;;;;;;;;;;4987558;28;99118;-63
2023/10/13 11:40:43;;;;;;;23.13;5.57;;;;;;;;;;4992368;28;100453;-63
2023/10/13 11:43:17;;;;;;;17.05;4.93;;;;;;;;;;4984401;28;98567;-63
2023/10/13 11:48:46;;;;;;;24.40;5.40;;;;;;;;;;4987129;28;98596;-63
2023/10/13 11:51:25;;;;;;;30.42;6.13;;;;;;;;;;4987610;28;98527;-63
2023/10/13 11:53:52;;;;;;;23.48;5.63;;;;;;;;;;4988007;28;99239;-63
2023/10/13 11:56:21;;;;;;;20.90;5.40;;;;;;;;;;4990800;28;99445;-63
2023/10/13 11:58:48;;;;;;;19.83;5.65;;;;;;;;;;4991087;28;101298;-63
2023/10/13 12:11:50;;;;;;;29.42;6.43;;;;;;;;;;4987852;28;98679;-63
2023/10/13 12:14:21;;;;;;;;;;;;;;;;;;4994559;28;99182;-63
2023/10/13 12:16:51;;;;;;;28.38;7.15;;;;;;;;;;4991372;28;118328;-63
2023/10/13 12:19:18;;;;;;;;;;;;;;;;;;4990987;28;100239;-63
2023/10/13 12:21:46;;;;;;;23.08;5.47;;;;;;;;;;4990882;28;131325;-65
2023/10/13 12:24:22;;;;;;;18.70;5.45;;;;;;;;;;4990956;28;98754;-65
2023/10/13 12:26:55;;;;;;;15.35;5.38;;;;;;;;;;4987482;28;99182;-65
2023/10/13 12:29:28;;;;;;;17.90;6.28;;;;;;;;;;4990458;28;100754;-65
2023/10/13 12:32:08;;;;;;;29.75;6.57;;;;;;;;;;4991422;28;99061;-65
2023/10/13 12:37:49;;;;;;;19.55;5.57;;;;;;;;;;4986852;28;99971;-65
2023/10/13 12:51:40;;;;;;;23.20;6.70;;;;;;;;;;4987952;28;99485;-65
2023/10/13 12:54:23;;;;;;;17.98;5.93;;;;;;;;;;4990496;28;98642;-65
2023/10/13 12:56:56;;;;;;;21.27;5.85;;;;;;;;;;4987198;28;99210;-65
2023/10/13 12:59:26;;;;;;;22.88;5.97;;;;;;;;;;4988924;28;100613;-65
2023/10/13 13:01:53;;;;;;;;;;;;;;;;;;4993949;28;98612;-63
2023/10/13 13:04:31;;;;;;;21.90;5.80;;;;;;;;;;4989861;28;130072;-65
2023/10/13 13:06:58;;;;;;;19.52;5.82;;;;;;;;;;4991121;28;97714;-65
2023/10/13 13:09:27;;;;;;;26.42;7.13;;;;;;;;;;4989802;28;99542;-65
2023/10/13 13:11:57;;;;;;;25.80;5.87;;;;;;;;;;4988150;28;100489;-65
2023/10/13 13:14:30;;;;;;;;;;;;;;;;;;4989727;28;99483;-63
2023/10/13 13:17:05;;;;;;;24.25;5.97;;;;;;;;;;4991462;28;128975;-65
2023/10/13 13:19:44;;;;;;;34.25;6.18;;;;;;;;;;4990138;28;100650;-65
2023/10/13 13:22:13;;;;;;;23.30;6.32;;;;;;;;;;4989688;28;98604;-65
2023/10/13 13:24:46;;;;;;;22.50;6.28;;;;;;;;;;4992880;28;99186;-65
2023/10/13 13:27:13;;;;;;;18.83;5.85;;;;;;;;;;4985228;28;98523;-65
2023/10/13 13:29:40;;;;;;;25.30;6.60;;;;;;;;;;4989373;28;99159;-65
2023/10/13 13:32:17;;;;;;;26.40;6.80;;;;;;;;;;4990192;28;98849;-64
2023/10/13 13:34:44;;;;;;;23.67;5.97;;;;;;;;;;4986298;28;98822;-65
2023/10/13 13:37:12;;;;;;;21.20;5.85;;;;;;;;;;4989300;28;99259;-65
2023/10/13 13:39:45;;;;;;;28.33;5.65;;;;;;;;;;4989034;28;101220;-65
2023/10/13 13:42:17;;;;;;;18.88;5.82;;;;;;;;;;4989087;28;98603;-65
2023/10/13 13:44:46;;;;;;;23.98;6.50;;;;;;;;;;4985987;28;99163;-65
2023/10/13 13:47:13;;;;;;;27.47;7.87;;;;;;;;;;4988796;28;99780;-65
2023/10/13 13:49:46;;;;;;;20.52;6.65;;;;;;;;;;4989909;28;101497;-65
2023/10/13 13:52:17;;;;;;;26.83;7.10;;;;;;;;;;4988615;28;99555;-65
2023/10/13 13:54:44;;;;;;;24.42;6.80;;;;;;;;;;4985798;28;98516;-65
2023/10/13 13:57:13;;;;;;;24.85;6.05;;;;;;;;;;4989730;28;99215;-65
2023/10/13 13:59:40;;;;;;;23.58;6.95;;;;;;;;;;4988920;28;99500;-65
2023/10/13 14:02:19;;;;;;;19.95;6.32;;;;;;;;;;4988962;28;98706;-65
2023/10/13 14:04:50;;;;;;;16.48;6.00;;;;;;;;;;4985068;28;99341;-65
2023/10/13 14:07:19;;;;;;;24.83;6.20;;;;;;;;;;4988706;28;99480;-66
2023/10/13 14:09:51;;;;;;;23.80;6.23;;;;;;;;;;4989247;28;99677;-65
2023/10/13 14:12:36;;;;;;;16.35;6.28;;;;;;;;;;4984971;28;99527;-65
2023/10/13 14:15:03;;;;;;;14.00;5.82;;;;;;;;;;4988288;28;98529;-65
2023/10/13 14:17:29;;;;;;;33.97;6.55;;;;;;;;;;4989161;28;99207;-65
2023/10/13 14:19:56;;;;;;;28.65;6.38;;;;;;;;;;4988508;28;99961;-65
2023/10/13 14:22:24;;;;;;;28.55;6.38;;;;;;;;;;4989602;28;97801;-65
2023/10/13 14:24:54;;;;;;;26.13;6.10;;;;;;;;;;4989327;28;99641;-64
2023/10/13 14:27:23;;;;;;;20.60;5.80;;;;;;;;;;4988940;28;99450;-66
2023/10/13 14:29:52;;;;;;;27.33;6.40;;;;;;;;;;4992057;28;99225;-65
2023/10/13 14:32:19;;;;;;;30.55;6.15;;;;;;;;;;4985149;28;100821;-66
2023/10/13 14:34:48;;;;;;;22.88;6.75;;;;;;;;;;4985334;28;98698;-65
2023/10/13 14:37:26;;;;;;;25.55;6.35;;;;;;;;;;4985647;28;100461;-66
2023/10/13 14:39:57;;;;;;;30.30;6.53;;;;;;;;;;4986170;28;99533;-65
2023/10/13 14:42:24;;;;;;;25.17;5.97;;;;;;;;;;4988216;28;98576;-65
2023/10/13 14:44:55;;;;;;;20.95;6.43;;;;;;;;;;4989340;28;99197;-65
2023/10/13 14:47:24;;;;;;;14.98;5.93;;;;;;;;;;4989327;28;98810;-65
2023/10/13 14:49:54;;;;;;;24.93;5.67;;;;;;;;;;4988927;28;98747;-65
2023/10/13 14:52:24;;;;;;;20.92;5.53;;;;;;;;;;4991928;28;99336;-65
2023/10/13 14:54:54;;;;;;;24.25;5.75;;;;;;;;;;4988474;28;101795;-65
2023/10/13 14:57:24;;;;;;;27.13;6.20;;;;;;;;;;4985288;28;99150;-65
2023/10/13 14:59:54;;;;;;;24.93;7.03;;;;;;;;;;4988954;28;100270;-65
2023/10/13 15:02:21;;;;;;;26.48;6.32;;;;;;;;;;4989024;28;99084;-65
2023/10/13 15:04:50;;;;;;;21.23;6.00;;;;;;;;;;4984870;28;98957;-65
2023/10/13 15:07:18;;;;;;;22.27;6.03;;;;;;;;;;4984478;28;99538;-65
2023/10/13 15:09:44;;;;;;;23.55;6.38;;;;;;;;;;4988332;28;98609;-65
2023/10/13 15:12:11;;;;;;;24.63;6.38;;;;;;;;;;4988061;28;99233;-65
2023/10/13 15:14:42;;;;;;;25.08;5.85;;;;;;;;;;4990897;28;99486;-65
2023/10/13 15:17:09;;;;;;;22.27;6.63;;;;;;;;;;4988562;28;99607;-65
2023/10/13 15:19:38;;;;;;;20.10;6.07;;;;;;;;;;4987026;28;100184;-65
2023/10/13 15:22:12;;;;;;;23.77;6.30;;;;;;;;;;4988052;28;98550;-65
2023/10/13 15:24:45;;;;;;;22.48;6.75;;;;;;;;;;4987941;28;100120;-65
2023/10/13 15:27:11;;;;;;;16.75;6.57;;;;;;;;;;4987567;28;100538;-65
2023/10/13 15:29:38;;;;;;;24.80;6.75;;;;;;;;;;4988873;28;98522;-65
2023/10/13 15:32:41;;;;;;;21.27;7.60;;;;;;;;;;4991676;28;99721;-65
2023/10/13 15:34:52;;;;;;;17.55;7.85;;;;;;;;;;4987469;28;99405;-65
2023/10/13 15:37:20;;;;;;;21.08;7.70;;;;;;;;;;4991920;28;97814;-65
2023/10/13 15:39:46;;;;;;;33.03;8.32;;;;;;;;;;4990867;28;99683;-65
2023/10/13 15:42:14;;;;;;;30.80;7.90;;;;;;;;;;4992104;28;98617;-65
2023/10/13 15:44:43;;;;;;;23.00;7.47;;;;;;;;;;4990755;28;99388;-65
2023/10/13 15:47:12;;;;;;;24.02;7.82;;;;;;;;;;4991224;28;99553;-65
2023/10/13 15:49:42;;;;;;;25.00;6.93;;;;;;;;;;4991405;28;98649;-65
2023/10/13 15:52:11;;;;;;;22.10;7.45;;;;;;;;;;4991619;28;99204;-65
2023/10/13 15:54:37;;;;;;;27.67;7.22;;;;;;;;;;4990537;28;100474;-65
2023/10/13 15:57:07;;;;;;;21.05;7.55;;;;;;;;;;4991502;28;98637;-65
2023/10/13 15:59:34;;;;;;;23.08;6.90;;;;;;;;;;4993711;28;99205;-65
2023/10/13 16:02:01;;;;;;;25.25;6.78;;;;;;;;;;4992025;28;97874;-65
2023/10/13 16:04:28;;;;;;;26.25;7.45;;;;;;;;;;4990517;28;98798;-65
2023/10/13 16:06:54;;;;;;;28.02;7.47;;;;;;;;;;4991043;28;100691;-65
2023/10/13 16:09:23;;;;;;;14.40;6.53;;;;;;;;;;4990879;28;99348;-65
2023/10/13 16:11:51;;;;;;;25.58;6.70;;;;;;;;;;4987524;28;99985;-65
2023/10/13 16:14:18;;;;;;;26.35;7.47;;;;;;;;;;4990046;28;99580;-65
2023/10/13 16:16:46;;;;;;;24.48;7.38;;;;;;;;;;4991473;28;98627;-65
2023/10/13 16:19:22;;;;;;;16.88;7.20;;;;;;;;;;4990279;28;99366;-65
2023/10/13 16:21:50;;;;;;;24.67;7.28;;;;;;;;;;4990658;28;100795;-65
2023/10/13 16:24:17;;;;;;;25.27;8.32;;;;;;;;;;4991225;28;100449;-65
2023/10/13 16:26:52;;;;;;;40.15;8.05;;;;;;;;;;4990814;28;97873;-65
2023/10/13 16:29:19;;;;;;;30.27;7.82;;;;;;;;;;4990814;28;98698;-65
2023/10/13 16:31:45;;;;;;;23.90;7.90;;;;;;;;;;4990838;28;99019;-66
2023/10/13 16:34:15;;;;;;;15.80;7.03;;;;;;;;;;4990106;28;101707;-65
2023/10/13 16:36:43;;;;;;;20.23;7.82;;;;;;;;;;4990998;28;98467;-65
2023/10/13 16:39:10;;;;;;;23.67;7.57;;;;;;;;;;4989857;28;99788;-65
2023/10/13 16:41:36;;;;;;;23.20;7.82;;;;;;;;;;4993000;28;99364;-65
2023/10/13 16:44:09;;;;;;;17.55;7.15;;;;;;;;;;4990640;28;99658;-65
2023/10/13 16:46:36;;;;;;;31.10;7.80;;;;;;;;;;4990220;28;99509;-65
2023/10/13 16:49:03;;;;;;;22.80;7.25;;;;;;;;;;4990235;28;98634;-65
2023/10/13 16:51:29;;;;;;;23.40;7.90;;;;;;;;;;4990249;28;99362;-64
2023/10/13 16:53:58;;;;;;;30.20;8.43;;;;;;;;;;4990713;28;99476;-65
2023/10/13 16:56:25;;;;;;;20.85;7.20;;;;;;;;;;4990483;28;98772;-65
2023/10/13 16:58:54;;;;;;;16.92;7.15;;;;;;;;;;4990393;28;99672;-65
2023/10/13 17:01:21;;;;;;;27.40;7.53;;;;;;;;;;4989402;28;99472;-65
2023/10/13 17:03:49;;;;;;;23.50;7.68;;;;;;;;;;4993864;28;98613;-65
2023/10/13 17:06:16;;;;;;;18.48;7.43;;;;;;;;;;4990009;28;100431;-65
2023/10/13 17:08:43;;;;;;;24.20;7.20;;;;;;;;;;4990186;28;98538;-65
2023/10/13 17:11:13;;;;;;;21.00;7.57;;;;;;;;;;4990062;28;99207;-65
2023/10/13 17:13:40;;;;;;;;;;;;;;;;;;4990215;28;100328;-65
2023/10/13 17:16:10;;;;;;;28.33;8.35;;;;;;;;;;4996482;28;118215;-65
2023/10/13 17:18:37;;;;;;;34.33;9.38;;;;;;;;;;4990433;28;98553;-65
2023/10/13 17:21:06;;;;;;;28.35;9.40;;;;;;;;;;4989817;28;100457;-65
2023/10/13 17:23:34;;;;;;;25.52;8.88;;;;;;;;;;4990439;28;99332;-64
2023/10/13 17:26:00;;;;;;;28.80;8.75;;;;;;;;;;4992062;28;99907;-64
2023/10/13 17:28:27;;;;;;;36.95;13.20;;;;;;;;;;4990409;28;98635;-64
2023/10/13 17:30:53;;;;;;;22.58;8.45;;;;;;;;;;4985806;28;99065;-64
2023/10/13 17:33:19;;;;;;;22.27;8.90;;;;;;;;;;4989566;28;99440;-64
2023/10/13 17:35:46;;;;;;;28.77;9.13;;;;;;;;;;4989949;28;98554;-64
2023/10/13 17:38:12;;;;;;;19.35;7.53;;;;;;;;;;4989890;28;99149;-64
2023/10/13 17:40:39;;;;;;;24.30;8.88;;;;;;;;;;4989786;28;98704;-64
2023/10/13 17:43:05;;;;;;;29.60;7.30;;;;;;;;;;4989220;28;98663;-64